< < Back
Terminal Aerodrome Forecast


Current Version              Previous Versions:   1  2  3  4  5  6  7  8  9  

Terminal Aerodrome Forecast

997
FTUS42 KGSP 251720
TAFGSP
TAF
KGSP 251720Z 2518/2618 14003KT P6SM SCT040
      TEMPO 2518/2522 VRB03KT
     FM261300 33003KT P6SM FEW040
     FM261500 04004KT P6SM FEW040=

Latest METAR

127
SAUS70 KWBC 251800 RRL
MTRGSP
METAR KGSP 251753Z 00000KT 10SM FEW043 31/20 A3016 RMK AO2 SLP198
T03060200 10322 20217 58015


USA.gov is the U.S. government's official web portal to all federal, state and local government web resources and services.